New Hampton, New Hampshire
Current Conditions -  °F | °C
As of 3:55 PM on Tuesday 21 Oct 2014 (Local Time) from KLCI Reporting Station
Overcast Overcast  
Wind Chill: 45°   Ceiling: 800
Heat Index: 48°   Visibility: 10mi
Dew Point: 45°   Wind: 8mph
Humidity: 87%   Direction: 60°ENE
Pressure: 29.97"   Gusts: NA
Location:  43.61°N, 71.65°W
Report Text: KLCI 211955Z AUTO 06007KT 10SM OVC008 09/07 A2997 RMK AO1
Loading
Personal Weather Stations






























Interactive Weather Map
Tropical Storm Tracking
New forecast layout! Learn more

10-Day Weather Forecast

Advertisements
Track Severe Weather on mobile